2020/07/11 13:30 VVNB 111330Z VRB02KT CAVOK 30/22 Q1002 NOSIG
2020/07/11 13:30 VVDN 111330Z 20006KT 9999 FEW015 29/21 Q1008 NOSIG
2020/07/11 13:30 VVTS 111330Z 20006KT 170V240 9999 FEW017 SCT050 29/25 Q1008 NOSIG
2020/07/11 13:30 VVPB 111330Z 19006KT 8000 TS FEW015 FEW017CB BKN060 25/23 Q1008 NOSIG

Powered by MinhViet JSC.